Aeroporto :







RITROVATECI SU...

 
LOGIN :

Iscrizione | Disclaimer

   EN    FR    IT 

 









Sommario :    VFR   VFR Marginale   IFR   IFR Intensivo   IFR Molto Intensivo
Visibilità : 
Base nubi : 
>= 8 km
>= 3000ft
5 / 8 km
1000 / 3000 ft
1500m / 5 km
500 / 1000 ft
800 / 1500m
200 / 500 ft
< 800m
< 200 ft
Simboli :   Temporali  Nebbia  Neve Forte  Precipitazioni Forti  Vento > 20 kt






- Altitudine del aeroporto : 881 ft


KNY0 - Fulton County

ULTIMO METAR :
  • 171139Z AUTO 30005KT 10SM BKN050 M04/M04 A3017 RMK AO2

METARs OBSOLETI :
  • 171118Z AUTO 28005KT 10SM SCT037 SCT050 M04/M05 A3016 RMK AO2
  • 171058Z AUTO 29005KT 10SM SCT035 SCT044 SCT050 M04/M04 A3015 RMK AO2
  • 171038Z AUTO 31005KT 10SM SCT035 BKN041 OVC048 M03/M04 A3014 RMK AO2
  • 171019Z AUTO 30007KT 10SM SCT036 SCT046 M04/M04 A3014 RMK AO2
  • 170938Z AUTO 30006KT 10SM SCT018 M04/M04 A3011 RMK AO2
  • 170919Z AUTO 31005KT 10SM CLR M03/M04 A3010 RMK AO2
  • 170859Z AUTO 28007KT 10SM CLR M03/M04 A3009 RMK AO2

TAF N/A



MetMap, La meteo Aeronautica in un colpo d'occhio ! - Copyright ORBIFLY Dicembre 2007 - Disclaimer

ORBIFLY MET'MAP TEAM :

Programmazione e sviluppo : Alexandra Zaïnal
Concezione : Baudouin d'Aumeries
Aiuto per la programmazione : Marc-Olivier Méhu
Supporto tecnico e logistico : Manuel Goepfert
Aiuto per la traduzione : Arnaldo La Scala

Contatto : metmap@orbifly.com




FONTI E CREDITI :

   NOAA